sensor_id;sensor_type;location;lat;lon;timestamp;P1;durP1;ratioP1;P2;durP2;ratioP2
76380;SDS011;65202;52.520;10.528;2024-03-23T00:54:31;29.55;;;11.27;;
76380;SDS011;65202;52.520;10.528;2024-03-23T00:56:58;23.45;;;9.38;;
76380;SDS011;65202;52.520;10.528;2024-03-23T00:59:24;26.05;;;9.52;;
76380;SDS011;65202;52.520;10.528;2024-03-23T01:01:54;28.92;;;9.45;;
76380;SDS011;65202;52.520;10.528;2024-03-23T01:04:21;26.45;;;10.13;;
76380;SDS011;65202;52.520;10.528;2024-03-23T01:06:48;25.25;;;10.50;;
76380;SDS011;65202;52.520;10.528;2024-03-23T01:09:14;24.48;;;10.82;;
76380;SDS011;65202;52.520;10.528;2024-03-23T01:11:41;22.65;;;9.38;;
76380;SDS011;65202;52.520;10.528;2024-03-23T01:14:07;22.77;;;7.93;;
76380;SDS011;65202;52.520;10.528;2024-03-23T01:16:34;19.55;;;7.25;;
76380;SDS011;65202;52.520;10.528;2024-03-23T01:19:00;21.55;;;6.60;;
76380;SDS011;65202;52.520;10.528;2024-03-23T01:21:27;15.93;;;5.82;;
76380;SDS011;65202;52.520;10.528;2024-03-23T01:23:53;20.10;;;6.30;;
76380;SDS011;65202;52.520;10.528;2024-03-23T01:26:20;14.07;;;5.43;;
76380;SDS011;65202;52.520;10.528;2024-03-23T01:28:47;17.25;;;6.05;;
76380;SDS011;65202;52.520;10.528;2024-03-23T01:31:13;16.83;;;5.70;;
76380;SDS011;65202;52.520;10.528;2024-03-23T01:33:39;18.75;;;6.03;;
76380;SDS011;65202;52.520;10.528;2024-03-23T01:36:06;18.77;;;6.22;;
76380;SDS011;65202;52.520;10.528;2024-03-23T01:38:32;19.05;;;6.57;;
76380;SDS011;65202;52.520;10.528;2024-03-23T01:40:59;26.42;;;6.15;;
76380;SDS011;65202;52.520;10.528;2024-03-23T01:43:26;16.88;;;6.25;;
76380;SDS011;65202;52.520;10.528;2024-03-23T01:45:53;27.40;;;9.43;;
76380;SDS011;65202;52.520;10.528;2024-03-23T01:48:20;19.88;;;6.55;;
76380;SDS011;65202;52.520;10.528;2024-03-23T01:50:47;20.75;;;6.70;;
76380;SDS011;65202;52.520;10.528;2024-03-23T01:53:14;21.98;;;7.28;;
76380;SDS011;65202;52.520;10.528;2024-03-23T01:55:43;22.23;;;7.10;;
76380;SDS011;65202;52.520;10.528;2024-03-23T01:58:10;20.65;;;7.13;;
76380;SDS011;65202;52.520;10.528;2024-03-23T02:00:37;18.98;;;6.50;;
76380;SDS011;65202;52.520;10.528;2024-03-23T02:03:21;16.58;;;5.25;;
76380;SDS011;65202;52.520;10.528;2024-03-23T02:05:52;15.70;;;4.78;;
76380;SDS011;65202;52.520;10.528;2024-03-23T02:08:21;17.00;;;4.45;;
76380;SDS011;65202;52.520;10.528;2024-03-23T02:10:49;18.08;;;4.40;;
76380;SDS011;65202;52.520;10.528;2024-03-23T02:13:20;16.27;;;4.90;;
76380;SDS011;65202;52.520;10.528;2024-03-23T02:15:47;18.52;;;4.75;;
76380;SDS011;65202;52.520;10.528;2024-03-23T02:18:14;14.02;;;4.30;;
76380;SDS011;65202;52.520;10.528;2024-03-23T02:20:40;16.38;;;4.03;;
76380;SDS011;65202;52.520;10.528;2024-03-23T02:23:16;14.80;;;4.32;;
76380;SDS011;65202;52.520;10.528;2024-03-23T02:25:46;18.70;;;5.45;;
76380;SDS011;65202;52.520;10.528;2024-03-23T02:28:13;14.68;;;4.60;;
76380;SDS011;65202;52.520;10.528;2024-03-23T02:30:40;15.32;;;4.50;;
76380;SDS011;65202;52.520;10.528;2024-03-23T02:33:06;16.02;;;5.22;;
76380;SDS011;65202;52.520;10.528;2024-03-23T02:35:33;17.88;;;5.25;;
76380;SDS011;65202;52.520;10.528;2024-03-23T02:38:00;19.50;;;5.18;;
76380;SDS011;65202;52.520;10.528;2024-03-23T02:40:27;15.38;;;5.15;;
76380;SDS011;65202;52.520;10.528;2024-03-23T02:42:54;15.38;;;4.72;;
76380;SDS011;65202;52.520;10.528;2024-03-23T02:45:21;14.85;;;5.15;;
76380;SDS011;65202;52.520;10.528;2024-03-23T02:47:48;16.25;;;5.45;;
76380;SDS011;65202;52.520;10.528;2024-03-23T02:50:18;14.43;;;5.28;;
76380;SDS011;65202;52.520;10.528;2024-03-23T02:52:46;15.18;;;5.13;;
76380;SDS011;65202;52.520;10.528;2024-03-23T02:55:13;18.23;;;5.40;;
76380;SDS011;65202;52.520;10.528;2024-03-23T02:57:41;17.48;;;5.57;;
76380;SDS011;65202;52.520;10.528;2024-03-23T03:00:07;17.02;;;5.53;;
76380;SDS011;65202;52.520;10.528;2024-03-23T03:02:35;17.02;;;5.70;;
76380;SDS011;65202;52.520;10.528;2024-03-23T03:05:01;17.20;;;5.25;;
76380;SDS011;65202;52.520;10.528;2024-03-23T03:07:28;17.73;;;5.93;;
76380;SDS011;65202;52.520;10.528;2024-03-23T03:09:55;14.60;;;5.13;;
76380;SDS011;65202;52.520;10.528;2024-03-23T03:12:21;21.02;;;5.93;;
76380;SDS011;65202;52.520;10.528;2024-03-23T03:14:48;17.70;;;5.57;;
76380;SDS011;65202;52.520;10.528;2024-03-23T03:17:14;21.45;;;5.55;;
76380;SDS011;65202;52.520;10.528;2024-03-23T03:19:41;19.48;;;5.80;;
76380;SDS011;65202;52.520;10.528;2024-03-23T03:22:08;18.42;;;5.57;;
76380;SDS011;65202;52.520;10.528;2024-03-23T03:24:34;23.17;;;6.35;;
76380;SDS011;65202;52.520;10.528;2024-03-23T03:27:01;18.63;;;5.85;;
76380;SDS011;65202;52.520;10.528;2024-03-23T03:29:29;24.48;;;5.93;;
76380;SDS011;65202;52.520;10.528;2024-03-23T03:32:04;21.93;;;5.73;;
76380;SDS011;65202;52.520;10.528;2024-03-23T03:34:31;22.13;;;6.07;;
76380;SDS011;65202;52.520;10.528;2024-03-23T03:36:57;23.20;;;6.15;;
76380;SDS011;65202;52.520;10.528;2024-03-23T03:39:26;14.13;;;5.25;;
76380;SDS011;65202;52.520;10.528;2024-03-23T03:41:52;19.17;;;5.90;;
76380;SDS011;65202;52.520;10.528;2024-03-23T03:44:19;21.88;;;5.63;;
76380;SDS011;65202;52.520;10.528;2024-03-23T03:46:45;17.85;;;5.50;;
76380;SDS011;65202;52.520;10.528;2024-03-23T03:49:12;21.65;;;5.95;;
76380;SDS011;65202;52.520;10.528;2024-03-23T03:51:38;20.45;;;5.72;;
76380;SDS011;65202;52.520;10.528;2024-03-23T03:54:05;19.00;;;5.78;;
76380;SDS011;65202;52.520;10.528;2024-03-23T03:56:32;19.73;;;5.32;;
76380;SDS011;65202;52.520;10.528;2024-03-23T03:58:58;20.83;;;6.20;;
76380;SDS011;65202;52.520;10.528;2024-03-23T04:01:25;23.02;;;5.78;;
76380;SDS011;65202;52.520;10.528;2024-03-23T04:03:52;21.63;;;6.30;;
76380;SDS011;65202;52.520;10.528;2024-03-23T04:06:18;22.02;;;5.55;;
76380;SDS011;65202;52.520;10.528;2024-03-23T04:08:46;20.33;;;5.63;;
76380;SDS011;65202;52.520;10.528;2024-03-23T04:11:12;20.27;;;5.55;;
76380;SDS011;65202;52.520;10.528;2024-03-23T04:13:39;23.08;;;6.13;;
76380;SDS011;65202;52.520;10.528;2024-03-23T04:16:07;25.50;;;6.05;;
76380;SDS011;65202;52.520;10.528;2024-03-23T04:18:35;26.95;;;8.00;;
76380;SDS011;65202;52.520;10.528;2024-03-23T04:21:02;14.98;;;5.28;;
76380;SDS011;65202;52.520;10.528;2024-03-23T04:23:28;19.95;;;6.15;;
76380;SDS011;65202;52.520;10.528;2024-03-23T04:25:55;23.33;;;5.70;;
76380;SDS011;65202;52.520;10.528;2024-03-23T04:28:21;17.50;;;5.00;;
76380;SDS011;65202;52.520;10.528;2024-03-23T04:30:48;22.23;;;5.10;;
76380;SDS011;65202;52.520;10.528;2024-03-23T04:33:15;17.33;;;5.07;;
76380;SDS011;65202;52.520;10.528;2024-03-23T04:35:42;21.58;;;4.75;;
76380;SDS011;65202;52.520;10.528;2024-03-23T04:38:08;23.10;;;5.00;;
76380;SDS011;65202;52.520;10.528;2024-03-23T04:40:35;20.30;;;4.70;;
76380;SDS011;65202;52.520;10.528;2024-03-23T04:43:01;16.38;;;5.13;;
76380;SDS011;65202;52.520;10.528;2024-03-23T04:45:28;19.55;;;4.28;;
76380;SDS011;65202;52.520;10.528;2024-03-23T04:47:55;18.58;;;4.50;;
76380;SDS011;65202;52.520;10.528;2024-03-23T04:50:21;19.33;;;4.28;;
76380;SDS011;65202;52.520;10.528;2024-03-23T04:52:48;21.40;;;4.70;;
76380;SDS011;65202;52.520;10.528;2024-03-23T04:55:14;17.73;;;4.40;;
76380;SDS011;65202;52.520;10.528;2024-03-23T04:57:40;13.38;;;3.70;;
76380;SDS011;65202;52.520;10.528;2024-03-23T05:00:07;16.30;;;3.53;;
76380;SDS011;65202;52.520;10.528;2024-03-23T05:02:43;15.68;;;3.97;;
76380;SDS011;65202;52.520;10.528;2024-03-23T05:05:11;20.67;;;3.97;;
76380;SDS011;65202;52.520;10.528;2024-03-23T05:07:38;18.50;;;3.85;;
76380;SDS011;65202;52.520;10.528;2024-03-23T05:10:05;22.88;;;3.95;;
76380;SDS011;65202;52.520;10.528;2024-03-23T05:12:36;22.90;;;4.85;;
76380;SDS011;65202;52.520;10.528;2024-03-23T05:15:04;21.60;;;4.18;;
76380;SDS011;65202;52.520;10.528;2024-03-23T05:17:32;13.82;;;3.70;;
76380;SDS011;65202;52.520;10.528;2024-03-23T05:19:59;20.63;;;4.88;;
76380;SDS011;65202;52.520;10.528;2024-03-23T05:22:26;18.50;;;4.18;;
76380;SDS011;65202;52.520;10.528;2024-03-23T05:24:53;22.13;;;5.15;;
76380;SDS011;65202;52.520;10.528;2024-03-23T05:27:19;18.83;;;4.70;;
76380;SDS011;65202;52.520;10.528;2024-03-23T05:29:46;20.08;;;5.32;;
76380;SDS011;65202;52.520;10.528;2024-03-23T05:32:13;19.17;;;4.88;;
76380;SDS011;65202;52.520;10.528;2024-03-23T05:34:40;20.77;;;4.85;;
76380;SDS011;65202;52.520;10.528;2024-03-23T05:37:06;20.45;;;4.95;;
76380;SDS011;65202;52.520;10.528;2024-03-23T05:39:33;20.20;;;4.90;;
76380;SDS011;65202;52.520;10.528;2024-03-23T05:41:59;18.73;;;4.80;;
76380;SDS011;65202;52.520;10.528;2024-03-23T05:44:28;12.77;;;3.92;;
76380;SDS011;65202;52.520;10.528;2024-03-23T05:46:55;21.35;;;5.00;;
76380;SDS011;65202;52.520;10.528;2024-03-23T05:49:21;30.80;;;5.40;;
76380;SDS011;65202;52.520;10.528;2024-03-23T05:51:48;20.25;;;4.85;;
76380;SDS011;65202;52.520;10.528;2024-03-23T05:54:14;16.85;;;5.05;;
76380;SDS011;65202;52.520;10.528;2024-03-23T05:56:41;18.67;;;4.78;;
76380;SDS011;65202;52.520;10.528;2024-03-23T05:59:08;21.42;;;6.22;;
76380;SDS011;65202;52.520;10.528;2024-03-23T06:01:35;19.80;;;5.13;;
76380;SDS011;65202;52.520;10.528;2024-03-23T06:04:02;22.00;;;5.55;;
76380;SDS011;65202;52.520;10.528;2024-03-23T06:06:28;18.13;;;5.18;;
76380;SDS011;65202;52.520;10.528;2024-03-23T06:08:56;16.50;;;4.15;;
76380;SDS011;65202;52.520;10.528;2024-03-23T06:11:23;17.05;;;4.43;;
76380;SDS011;65202;52.520;10.528;2024-03-23T06:13:49;13.85;;;3.80;;
76380;SDS011;65202;52.520;10.528;2024-03-23T06:16:16;18.02;;;4.00;;
76380;SDS011;65202;52.520;10.528;2024-03-23T06:18:45;18.20;;;3.83;;
76380;SDS011;65202;52.520;10.528;2024-03-23T06:21:15;19.30;;;3.78;;
76380;SDS011;65202;52.520;10.528;2024-03-23T06:23:42;14.95;;;3.65;;
76380;SDS011;65202;52.520;10.528;2024-03-23T06:26:08;18.38;;;3.83;;
76380;SDS011;65202;52.520;10.528;2024-03-23T06:28:35;11.98;;;3.20;;
76380;SDS011;65202;52.520;10.528;2024-03-23T06:31:02;12.43;;;3.47;;
76380;SDS011;65202;52.520;10.528;2024-03-23T06:33:28;9.30;;;2.58;;
76380;SDS011;65202;52.520;10.528;2024-03-23T06:35:55;16.08;;;3.15;;
76380;SDS011;65202;52.520;10.528;2024-03-23T06:38:21;15.60;;;3.38;;
76380;SDS011;65202;52.520;10.528;2024-03-23T06:40:48;16.92;;;3.20;;
76380;SDS011;65202;52.520;10.528;2024-03-23T06:43:16;19.35;;;2.85;;
76380;SDS011;65202;52.520;10.528;2024-03-23T06:45:43;14.10;;;3.35;;
76380;SDS011;65202;52.520;10.528;2024-03-23T06:48:10;13.18;;;3.10;;
76380;SDS011;65202;52.520;10.528;2024-03-23T06:50:36;17.00;;;2.88;;
76380;SDS011;65202;52.520;10.528;2024-03-23T06:53:03;14.75;;;2.72;;
76380;SDS011;65202;52.520;10.528;2024-03-23T06:55:31;21.67;;;3.30;;
76380;SDS011;65202;52.520;10.528;2024-03-23T06:57:58;17.67;;;3.25;;
76380;SDS011;65202;52.520;10.528;2024-03-23T07:00:25;18.67;;;3.33;;
76380;SDS011;65202;52.520;10.528;2024-03-23T07:02:52;16.65;;;3.70;;
76380;SDS011;65202;52.520;10.528;2024-03-23T07:05:18;20.77;;;4.28;;
76380;SDS011;65202;52.520;10.528;2024-03-23T07:07:45;19.67;;;3.83;;
76380;SDS011;65202;52.520;10.528;2024-03-23T07:10:12;18.27;;;3.50;;
76380;SDS011;65202;52.520;10.528;2024-03-23T07:12:39;16.67;;;3.17;;
76380;SDS011;65202;52.520;10.528;2024-03-23T07:15:05;15.18;;;3.25;;
76380;SDS011;65202;52.520;10.528;2024-03-23T07:17:34;13.95;;;3.30;;
76380;SDS011;65202;52.520;10.528;2024-03-23T07:20:01;22.65;;;4.47;;
76380;SDS011;65202;52.520;10.528;2024-03-23T07:22:32;20.85;;;5.25;;
76380;SDS011;65202;52.520;10.528;2024-03-23T07:25:00;23.65;;;5.10;;
76380;SDS011;65202;52.520;10.528;2024-03-23T07:27:27;24.73;;;4.57;;
76380;SDS011;65202;52.520;10.528;2024-03-23T07:29:53;13.25;;;3.22;;
76380;SDS011;65202;52.520;10.528;2024-03-23T07:32:21;21.90;;;4.25;;
76380;SDS011;65202;52.520;10.528;2024-03-23T07:34:47;16.67;;;3.78;;
76380;SDS011;65202;52.520;10.528;2024-03-23T07:37:14;16.73;;;4.32;;
76380;SDS011;65202;52.520;10.528;2024-03-23T07:39:40;17.08;;;4.78;;
76380;SDS011;65202;52.520;10.528;2024-03-23T07:42:07;12.40;;;3.38;;
76380;SDS011;65202;52.520;10.528;2024-03-23T07:44:34;15.32;;;3.05;;
76380;SDS011;65202;52.520;10.528;2024-03-23T07:47:00;21.65;;;6.35;;
76380;SDS011;65202;52.520;10.528;2024-03-23T07:49:27;25.90;;;5.75;;
76380;SDS011;65202;52.520;10.528;2024-03-23T07:51:54;19.45;;;4.25;;
76380;SDS011;65202;52.520;10.528;2024-03-23T07:54:20;13.38;;;3.50;;
76380;SDS011;65202;52.520;10.528;2024-03-23T07:56:47;14.55;;;3.97;;
76380;SDS011;65202;52.520;10.528;2024-03-23T07:59:14;17.67;;;3.17;;
76380;SDS011;65202;52.520;10.528;2024-03-23T08:01:40;14.85;;;2.97;;
76380;SDS011;65202;52.520;10.528;2024-03-23T08:04:07;12.77;;;2.80;;
76380;SDS011;65202;52.520;10.528;2024-03-23T08:06:33;14.15;;;2.47;;
76380;SDS011;65202;52.520;10.528;2024-03-23T08:09:00;11.38;;;2.55;;
76380;SDS011;65202;52.520;10.528;2024-03-23T08:11:27;13.02;;;2.50;;
76380;SDS011;65202;52.520;10.528;2024-03-23T08:13:55;16.55;;;2.60;;
76380;SDS011;65202;52.520;10.528;2024-03-23T08:16:23;21.17;;;3.20;;
76380;SDS011;65202;52.520;10.528;2024-03-23T08:18:51;12.38;;;3.03;;
76380;SDS011;65202;52.520;10.528;2024-03-23T08:21:18;18.50;;;3.70;;
76380;SDS011;65202;52.520;10.528;2024-03-23T08:23:45;18.35;;;3.10;;
76380;SDS011;65202;52.520;10.528;2024-03-23T08:26:12;18.83;;;3.53;;
76380;SDS011;65202;52.520;10.528;2024-03-23T08:28:42;16.13;;;2.97;;
76380;SDS011;65202;52.520;10.528;2024-03-23T08:31:08;21.45;;;3.53;;
76380;SDS011;65202;52.520;10.528;2024-03-23T08:33:39;17.20;;;3.65;;
76380;SDS011;65202;52.520;10.528;2024-03-23T08:36:06;16.92;;;3.55;;
76380;SDS011;65202;52.520;10.528;2024-03-23T08:38:34;23.10;;;3.47;;
76380;SDS011;65202;52.520;10.528;2024-03-23T08:41:02;20.38;;;3.50;;
76380;SDS011;65202;52.520;10.528;2024-03-23T08:43:31;27.45;;;4.43;;
76380;SDS011;65202;52.520;10.528;2024-03-23T08:46:03;22.95;;;4.40;;
76380;SDS011;65202;52.520;10.528;2024-03-23T08:48:31;21.85;;;4.13;;
76380;SDS011;65202;52.520;10.528;2024-03-23T08:51:02;17.83;;;4.05;;
76380;SDS011;65202;52.520;10.528;2024-03-23T08:53:29;19.42;;;4.53;;
76380;SDS011;65202;52.520;10.528;2024-03-23T08:55:56;22.02;;;5.47;;
76380;SDS011;65202;52.520;10.528;2024-03-23T08:58:24;25.77;;;4.60;;
76380;SDS011;65202;52.520;10.528;2024-03-23T09:00:53;25.60;;;5.80;;
76380;SDS011;65202;52.520;10.528;2024-03-23T09:03:22;24.95;;;5.50;;
76380;SDS011;65202;52.520;10.528;2024-03-23T09:05:50;27.80;;;5.88;;
76380;SDS011;65202;52.520;10.528;2024-03-23T09:08:18;26.55;;;6.15;;
76380;SDS011;65202;52.520;10.528;2024-03-23T09:10:46;31.90;;;6.47;;
76380;SDS011;65202;52.520;10.528;2024-03-23T09:13:14;28.90;;;6.63;;
76380;SDS011;65202;52.520;10.528;2024-03-23T09:15:49;28.50;;;7.32;;
76380;SDS011;65202;52.520;10.528;2024-03-23T09:18:17;33.90;;;7.45;;
76380;SDS011;65202;52.520;10.528;2024-03-23T09:20:44;31.27;;;7.55;;
76380;SDS011;65202;52.520;10.528;2024-03-23T09:23:11;30.77;;;6.90;;
76380;SDS011;65202;52.520;10.528;2024-03-23T09:25:38;30.98;;;7.40;;
76380;SDS011;65202;52.520;10.528;2024-03-23T09:28:06;33.20;;;7.40;;
76380;SDS011;65202;52.520;10.528;2024-03-23T09:30:35;26.60;;;6.95;;
76380;SDS011;65202;52.520;10.528;2024-03-23T09:33:08;25.77;;;6.07;;
76380;SDS011;65202;52.520;10.528;2024-03-23T09:35:39;30.60;;;7.05;;
76380;SDS011;65202;52.520;10.528;2024-03-23T09:38:07;29.25;;;7.43;;
76380;SDS011;65202;52.520;10.528;2024-03-23T09:40:38;28.10;;;6.97;;
76380;SDS011;65202;52.520;10.528;2024-03-23T09:43:09;30.00;;;6.53;;
76380;SDS011;65202;52.520;10.528;2024-03-23T09:45:36;37.33;;;7.68;;
76380;SDS011;65202;52.520;10.528;2024-03-23T09:48:06;27.13;;;6.97;;
76380;SDS011;65202;52.520;10.528;2024-03-23T09:50:40;36.22;;;6.97;;
76380;SDS011;65202;52.520;10.528;2024-03-23T09:53:12;25.15;;;6.10;;
76380;SDS011;65202;52.520;10.528;2024-03-23T09:55:40;29.55;;;6.50;;
76380;SDS011;65202;52.520;10.528;2024-03-23T09:58:12;27.45;;;5.88;;
76380;SDS011;65202;52.520;10.528;2024-03-23T10:00:39;28.10;;;6.38;;
76380;SDS011;65202;52.520;10.528;2024-03-23T10:03:06;31.27;;;7.28;;
76380;SDS011;65202;52.520;10.528;2024-03-23T10:05:33;30.13;;;6.15;;
76380;SDS011;65202;52.520;10.528;2024-03-23T10:08:24;22.60;;;5.55;;
76380;SDS011;65202;52.520;10.528;2024-03-23T10:10:49;21.98;;;5.38;;
76380;SDS011;65202;52.520;10.528;2024-03-23T10:13:25;33.25;;;6.93;;
76380;SDS011;65202;52.520;10.528;2024-03-23T10:15:56;30.75;;;7.15;;
76380;SDS011;65202;52.520;10.528;2024-03-23T10:18:24;21.40;;;5.22;;
76380;SDS011;65202;52.520;10.528;2024-03-23T10:21:00;25.55;;;5.40;;
76380;SDS011;65202;52.520;10.528;2024-03-23T10:23:35;18.38;;;4.60;;
76380;SDS011;65202;52.520;10.528;2024-03-23T10:28:55;17.20;;;5.03;;
76380;SDS011;65202;52.520;10.528;2024-03-23T10:31:34;20.63;;;4.25;;
76380;SDS011;65202;52.520;10.528;2024-03-23T10:34:03;23.27;;;4.53;;
76380;SDS011;65202;52.520;10.528;2024-03-23T10:36:30;18.98;;;4.55;;
76380;SDS011;65202;52.520;10.528;2024-03-23T10:38:56;18.10;;;4.50;;
76380;SDS011;65202;52.520;10.528;2024-03-23T10:41:26;21.45;;;4.50;;
76380;SDS011;65202;52.520;10.528;2024-03-23T10:43:55;20.85;;;4.57;;
76380;SDS011;65202;52.520;10.528;2024-03-23T10:46:23;21.83;;;4.68;;
76380;SDS011;65202;52.520;10.528;2024-03-23T10:48:51;15.80;;;4.22;;
76380;SDS011;65202;52.520;10.528;2024-03-23T10:51:18;14.60;;;3.30;;
76380;SDS011;65202;52.520;10.528;2024-03-23T10:53:44;10.80;;;3.00;;
76380;SDS011;65202;52.520;10.528;2024-03-23T10:56:13;15.73;;;3.83;;
76380;SDS011;65202;52.520;10.528;2024-03-23T10:58:43;16.63;;;4.00;;
76380;SDS011;65202;52.520;10.528;2024-03-23T11:01:14;13.68;;;3.67;;
76380;SDS011;65202;52.520;10.528;2024-03-23T11:03:45;15.60;;;3.80;;
76380;SDS011;65202;52.520;10.528;2024-03-23T11:14:56;13.98;;;3.25;;
76380;SDS011;65202;52.520;10.528;2024-03-23T11:17:30;13.07;;;3.10;;
76380;SDS011;65202;52.520;10.528;2024-03-23T11:22:37;15.18;;;3.30;;
76380;SDS011;65202;52.520;10.528;2024-03-23T11:25:12;16.17;;;3.50;;
76380;SDS011;65202;52.520;10.528;2024-03-23T11:27:56;16.40;;;3.72;;
76380;SDS011;65202;52.520;10.528;2024-03-23T11:30:34;17.30;;;3.30;;
76380;SDS011;65202;52.520;10.528;2024-03-23T11:33:01;15.55;;;3.45;;
76380;SDS011;65202;52.520;10.528;2024-03-23T11:38:09;20.08;;;3.58;;
76380;SDS011;65202;52.520;10.528;2024-03-23T11:40:40;12.27;;;2.30;;
76380;SDS011;65202;52.520;10.528;2024-03-23T11:43:10;8.82;;;1.80;;
76380;SDS011;65202;52.520;10.528;2024-03-23T11:45:43;8.18;;;1.92;;
76380;SDS011;65202;52.520;10.528;2024-03-23T11:48:22;10.00;;;2.30;;
76380;SDS011;65202;52.520;10.528;2024-03-23T11:50:50;14.23;;;2.22;;
76380;SDS011;65202;52.520;10.528;2024-03-23T11:53:24;15.32;;;2.58;;
76380;SDS011;65202;52.520;10.528;2024-03-23T11:55:54;9.45;;;2.20;;
76380;SDS011;65202;52.520;10.528;2024-03-23T11:58:23;6.60;;;1.60;;
76380;SDS011;65202;52.520;10.528;2024-03-23T12:01:01;8.68;;;2.10;;
76380;SDS011;65202;52.520;10.528;2024-03-23T12:03:30;5.53;;;1.70;;
76380;SDS011;65202;52.520;10.528;2024-03-23T12:05:59;8.43;;;1.33;;
76380;SDS011;65202;52.520;10.528;2024-03-23T12:11:07;6.80;;;1.23;;
76380;SDS011;65202;52.520;10.528;2024-03-23T12:13:43;7.90;;;1.52;;
76380;SDS011;65202;52.520;10.528;2024-03-23T12:16:16;6.30;;;1.58;;
76380;SDS011;65202;52.520;10.528;2024-03-23T12:18:48;6.40;;;1.48;;
76380;SDS011;65202;52.520;10.528;2024-03-23T12:21:19;4.07;;;1.17;;
76380;SDS011;65202;52.520;10.528;2024-03-23T12:23:48;6.70;;;1.63;;
76380;SDS011;65202;52.520;10.528;2024-03-23T12:26:16;5.70;;;1.70;;
76380;SDS011;65202;52.520;10.528;2024-03-23T12:28:44;5.53;;;1.40;;
76380;SDS011;65202;52.520;10.528;2024-03-23T12:31:10;6.32;;;1.73;;
76380;SDS011;65202;52.520;10.528;2024-03-23T12:33:37;5.13;;;1.70;;
76380;SDS011;65202;52.520;10.528;2024-03-23T12:36:03;7.63;;;2.03;;
76380;SDS011;65202;52.520;10.528;2024-03-23T12:38:30;6.35;;;1.60;;
76380;SDS011;65202;52.520;10.528;2024-03-23T12:40:57;5.30;;;1.50;;
76380;SDS011;65202;52.520;10.528;2024-03-23T12:43:23;5.10;;;1.58;;
76380;SDS011;65202;52.520;10.528;2024-03-23T12:45:50;5.57;;;2.60;;
76380;SDS011;65202;52.520;10.528;2024-03-23T12:48:16;3.50;;;1.60;;
76380;SDS011;65202;52.520;10.528;2024-03-23T12:50:43;4.80;;;1.40;;
76380;SDS011;65202;52.520;10.528;2024-03-23T12:53:09;2.42;;;1.33;;
76380;SDS011;65202;52.520;10.528;2024-03-23T12:55:36;5.13;;;1.13;;
76380;SDS011;65202;52.520;10.528;2024-03-23T12:58:02;3.72;;;1.50;;
76380;SDS011;65202;52.520;10.528;2024-03-23T13:00:30;3.97;;;1.40;;
76380;SDS011;65202;52.520;10.528;2024-03-23T13:02:57;4.30;;;1.40;;
76380;SDS011;65202;52.520;10.528;2024-03-23T13:05:23;4.10;;;1.38;;
76380;SDS011;65202;52.520;10.528;2024-03-23T13:07:50;2.47;;;1.15;;
76380;SDS011;65202;52.520;10.528;2024-03-23T13:10:16;4.25;;;1.58;;
76380;SDS011;65202;52.520;10.528;2024-03-23T13:12:43;4.07;;;1.40;;
76380;SDS011;65202;52.520;10.528;2024-03-23T13:15:09;4.65;;;1.23;;
76380;SDS011;65202;52.520;10.528;2024-03-23T13:17:36;3.47;;;1.35;;
76380;SDS011;65202;52.520;10.528;2024-03-23T13:20:02;6.18;;;1.60;;
76380;SDS011;65202;52.520;10.528;2024-03-23T13:22:30;6.28;;;1.73;;
76380;SDS011;65202;52.520;10.528;2024-03-23T13:24:57;5.00;;;1.25;;
76380;SDS011;65202;52.520;10.528;2024-03-23T13:27:24;6.10;;;1.48;;
76380;SDS011;65202;52.520;10.528;2024-03-23T13:29:50;5.43;;;1.20;;
76380;SDS011;65202;52.520;10.528;2024-03-23T13:32:17;6.30;;;1.80;;
76380;SDS011;65202;52.520;10.528;2024-03-23T13:34:43;5.40;;;1.27;;
76380;SDS011;65202;52.520;10.528;2024-03-23T13:37:10;6.78;;;1.40;;
76380;SDS011;65202;52.520;10.528;2024-03-23T13:39:37;4.07;;;1.50;;
76380;SDS011;65202;52.520;10.528;2024-03-23T13:42:03;4.90;;;1.25;;
76380;SDS011;65202;52.520;10.528;2024-03-23T13:44:30;3.40;;;1.40;;
76380;SDS011;65202;52.520;10.528;2024-03-23T13:46:56;6.60;;;1.70;;
76380;SDS011;65202;52.520;10.528;2024-03-23T13:49:24;4.38;;;1.60;;
76380;SDS011;65202;52.520;10.528;2024-03-23T13:51:53;3.90;;;1.50;;
76380;SDS011;65202;52.520;10.528;2024-03-23T13:54:21;3.70;;;1.70;;
76380;SDS011;65202;52.520;10.528;2024-03-23T13:56:49;5.28;;;2.15;;
76380;SDS011;65202;52.520;10.528;2024-03-23T13:59:16;4.38;;;1.63;;
76380;SDS011;65202;52.520;10.528;2024-03-23T14:01:46;4.95;;;2.13;;
76380;SDS011;65202;52.520;10.528;2024-03-23T14:04:13;5.82;;;2.00;;
76380;SDS011;65202;52.520;10.528;2024-03-23T14:06:39;7.72;;;2.47;;
76380;SDS011;65202;52.520;10.528;2024-03-23T14:09:07;5.90;;;2.20;;
76380;SDS011;65202;52.520;10.528;2024-03-23T14:11:35;5.75;;;2.30;;
76380;SDS011;65202;52.520;10.528;2024-03-23T14:14:06;6.13;;;2.30;;
76380;SDS011;65202;52.520;10.528;2024-03-23T14:16:33;6.03;;;2.20;;
76380;SDS011;65202;52.520;10.528;2024-03-23T14:18:59;5.13;;;2.55;;
76380;SDS011;65202;52.520;10.528;2024-03-23T14:21:26;5.25;;;2.05;;
76380;SDS011;65202;52.520;10.528;2024-03-23T14:23:52;5.38;;;2.10;;
76380;SDS011;65202;52.520;10.528;2024-03-23T14:26:21;7.10;;;2.83;;
76380;SDS011;65202;52.520;10.528;2024-03-23T14:28:48;8.65;;;3.20;;
76380;SDS011;65202;52.520;10.528;2024-03-23T14:31:16;10.27;;;2.50;;
76380;SDS011;65202;52.520;10.528;2024-03-23T14:33:43;4.90;;;2.05;;
76380;SDS011;65202;52.520;10.528;2024-03-23T14:36:13;4.78;;;1.65;;
76380;SDS011;65202;52.520;10.528;2024-03-23T14:38:40;3.70;;;1.83;;
76380;SDS011;65202;52.520;10.528;2024-03-23T14:41:06;5.15;;;1.70;;
76380;SDS011;65202;52.520;10.528;2024-03-23T14:43:33;8.15;;;2.00;;
76380;SDS011;65202;52.520;10.528;2024-03-23T14:46:13;4.13;;;1.75;;
76380;SDS011;65202;52.520;10.528;2024-03-23T14:48:42;5.95;;;1.98;;
76380;SDS011;65202;52.520;10.528;2024-03-23T14:51:10;6.05;;;1.88;;
76380;SDS011;65202;52.520;10.528;2024-03-23T14:53:38;2.90;;;1.58;;
76380;SDS011;65202;52.520;10.528;2024-03-23T14:56:07;5.22;;;1.90;;
76380;SDS011;65202;52.520;10.528;2024-03-23T14:58:37;5.25;;;1.60;;
76380;SDS011;65202;52.520;10.528;2024-03-23T15:01:04;4.90;;;1.77;;
76380;SDS011;65202;52.520;10.528;2024-03-23T15:03:36;6.68;;;2.00;;
76380;SDS011;65202;52.520;10.528;2024-03-23T15:06:05;4.25;;;1.55;;
76380;SDS011;65202;52.520;10.528;2024-03-23T15:08:35;5.60;;;2.03;;
76380;SDS011;65202;52.520;10.528;2024-03-23T15:11:02;8.40;;;2.10;;
76380;SDS011;65202;52.520;10.528;2024-03-23T15:13:34;6.40;;;2.08;;
76380;SDS011;65202;52.520;10.528;2024-03-23T15:16:04;5.80;;;1.90;;
76380;SDS011;65202;52.520;10.528;2024-03-23T15:18:32;7.60;;;1.95;;
76380;SDS011;65202;52.520;10.528;2024-03-23T15:21:00;4.13;;;1.90;;
76380;SDS011;65202;52.520;10.528;2024-03-23T15:23:38;7.90;;;2.10;;
76380;SDS011;65202;52.520;10.528;2024-03-23T15:26:04;7.05;;;2.13;;
76380;SDS011;65202;52.520;10.528;2024-03-23T15:28:33;5.55;;;2.42;;
76380;SDS011;65202;52.520;10.528;2024-03-23T15:31:29;10.23;;;3.22;;
76380;SDS011;65202;52.520;10.528;2024-03-23T15:33:56;13.80;;;5.70;;
76380;SDS011;65202;52.520;10.528;2024-03-23T15:36:23;9.07;;;2.10;;
76380;SDS011;65202;52.520;10.528;2024-03-23T15:38:49;5.43;;;1.90;;
76380;SDS011;65202;52.520;10.528;2024-03-23T15:41:15;6.43;;;2.05;;
76380;SDS011;65202;52.520;10.528;2024-03-23T15:43:42;7.85;;;2.45;;